createdAt,value
2022-10-17T00:00:47.222Z,96.20
2022-10-17T00:03:13.629Z,95.11
2022-10-17T00:05:42.279Z,95.03
2022-10-17T00:08:09.894Z,95.37
2022-10-17T00:10:36.487Z,95.26
2022-10-17T00:13:03.411Z,95.96
2022-10-17T00:15:29.911Z,95.86
2022-10-17T00:17:56.419Z,94.80
2022-10-17T00:20:22.977Z,93.94
2022-10-17T00:22:49.444Z,93.38
2022-10-17T00:25:16.087Z,93.49
2022-10-17T00:27:42.722Z,94.03
2022-10-17T00:30:13.573Z,93.93
2022-10-17T00:32:40.312Z,93.58
2022-10-17T00:35:08.069Z,92.93
2022-10-17T00:37:34.822Z,94.03
2022-10-17T00:40:01.304Z,93.11
2022-10-17T00:42:28.392Z,93.10
2022-10-17T00:45:06.780Z,94.01
2022-10-17T00:47:35.198Z,94.54
2022-10-17T00:52:35.230Z,94.90
2022-10-17T00:55:24.429Z,95.43
2022-10-17T00:57:51.553Z,94.04
2022-10-17T01:00:19.040Z,92.94
2022-10-17T01:02:46.236Z,93.52
2022-10-17T01:05:14.208Z,93.90
2022-10-17T01:07:42.251Z,92.98
2022-10-17T01:10:10.358Z,93.26
2022-10-17T01:12:39.601Z,92.33
2022-10-17T01:15:11.400Z,92.29
2022-10-17T01:18:00.027Z,92.48
2022-10-17T01:20:47.776Z,93.92
2022-10-17T01:23:43.736Z,93.00
2022-10-17T01:26:28.588Z,91.92
2022-10-17T01:29:19.838Z,92.35
2022-10-17T01:32:13.926Z,92.52
2022-10-17T01:35:08.968Z,92.61
2022-10-17T01:37:47.921Z,94.14
2022-10-17T01:40:25.390Z,93.88
2022-10-17T01:42:59.446Z,93.45
2022-10-17T01:45:37.230Z,93.06
2022-10-17T01:48:08.907Z,93.27
2022-10-17T01:50:41.464Z,97.12
2022-10-17T01:53:16.410Z,96.42
2022-10-17T01:55:46.400Z,97.47
2022-10-17T01:58:48.072Z,96.52
2022-10-17T02:01:15.854Z,97.25
2022-10-17T02:03:45.144Z,95.95
2022-10-17T02:06:11.934Z,94.86
2022-10-17T02:08:47.249Z,94.95
2022-10-17T02:11:17.662Z,95.10
2022-10-17T02:14:02.241Z,95.68
2022-10-17T02:16:42.810Z,94.25
2022-10-17T02:19:24.723Z,93.71
2022-10-17T02:21:54.269Z,93.14
2022-10-17T02:24:37.897Z,93.64
2022-10-17T02:27:12.005Z,93.18
2022-10-17T02:29:55.430Z,93.21
2022-10-17T02:32:26.424Z,93.62
2022-10-17T02:34:56.765Z,93.53
2022-10-17T02:37:25.956Z,97.45
2022-10-17T02:39:55.125Z,95.63
2022-10-17T02:42:23.420Z,96.85
2022-10-17T02:44:50.487Z,97.58
2022-10-17T02:47:33.725Z,97.37
2022-10-17T02:50:00.976Z,96.85
2022-10-17T02:52:45.942Z,97.50
2022-10-17T02:55:19.562Z,97.50
2022-10-17T02:57:54.253Z,97.98
2022-10-17T03:00:22.652Z,97.29
2022-10-17T03:02:53.660Z,97.27
2022-10-17T03:05:23.375Z,96.97
2022-10-17T03:07:50.356Z,97.41
2022-10-17T03:10:16.819Z,97.43
2022-10-17T03:12:43.374Z,98.62
2022-10-17T03:15:10.714Z,98.52
2022-10-17T03:17:37.901Z,99.99
2022-10-17T03:20:05.768Z,99.11
2022-10-17T03:22:32.696Z,100.00
2022-10-17T03:24:59.311Z,99.20
2022-10-17T03:27:25.903Z,98.14
2022-10-17T03:29:53.204Z,98.62
2022-10-17T03:32:19.640Z,96.99
2022-10-17T03:34:46.039Z,97.71
2022-10-17T03:37:12.523Z,97.27
2022-10-17T03:39:39.029Z,97.77
2022-10-17T03:42:05.455Z,97.05
2022-10-17T03:44:31.909Z,96.29
2022-10-17T03:46:58.431Z,96.45
2022-10-17T03:49:24.943Z,95.60
2022-10-17T03:51:51.628Z,95.90
2022-10-17T03:54:18.120Z,95.98
2022-10-17T03:56:44.613Z,96.46
2022-10-17T03:59:15.549Z,96.40
2022-10-17T04:01:42.919Z,95.91
2022-10-17T04:04:09.829Z,96.69
2022-10-17T04:06:37.263Z,96.59
2022-10-17T04:09:05.652Z,96.03
2022-10-17T04:11:32.888Z,96.06
2022-10-17T04:13:59.736Z,95.77
2022-10-17T04:16:26.513Z,95.39
2022-10-17T04:18:58.074Z,95.92
2022-10-17T04:21:26.093Z,95.49
2022-10-17T04:23:56.872Z,95.58
2022-10-17T04:26:23.909Z,95.56
2022-10-17T04:28:50.837Z,98.72
2022-10-17T04:31:18.735Z,98.03
2022-10-17T04:33:48.118Z,100.00
2022-10-17T04:36:17.245Z,100.00
2022-10-17T04:38:43.973Z,100.00
2022-10-17T04:41:13.381Z,100.00
2022-10-17T04:43:40.524Z,100.00
2022-10-17T04:46:10.892Z,100.00
2022-10-17T04:48:37.805Z,100.00
2022-10-17T04:51:07.417Z,99.35
2022-10-17T04:53:36.188Z,99.02
2022-10-17T04:56:09.016Z,98.62
2022-10-17T04:58:36.235Z,98.64
2022-10-17T05:01:10.654Z,98.44
2022-10-17T05:03:37.201Z,99.18
2022-10-17T05:06:09.224Z,98.90
2022-10-17T05:08:35.809Z,98.68
2022-10-17T05:11:02.891Z,98.27
2022-10-17T05:13:29.676Z,98.09
2022-10-17T05:16:01.972Z,97.94
2022-10-17T05:18:29.081Z,97.66
2022-10-17T05:20:55.957Z,96.73
2022-10-17T05:23:22.640Z,96.41
2022-10-17T05:25:54.302Z,96.87
2022-10-17T05:28:20.726Z,95.73
2022-10-17T05:30:47.164Z,95.46
2022-10-17T05:33:13.680Z,95.44
2022-10-17T05:35:40.180Z,95.25
2022-10-17T05:38:06.652Z,95.01
2022-10-17T05:40:34.023Z,94.72
2022-10-17T05:43:00.528Z,94.69
2022-10-17T05:45:26.983Z,94.35
2022-10-17T05:47:53.465Z,94.21
2022-10-17T05:50:21.976Z,94.12
2022-10-17T05:52:52.417Z,93.92
2022-10-17T05:55:18.858Z,93.58
2022-10-17T05:57:45.279Z,93.63
2022-10-17T06:00:12.457Z,94.16
2022-10-17T06:02:38.951Z,94.38
2022-10-17T06:05:05.742Z,93.94
2022-10-17T06:07:32.271Z,93.86
2022-10-17T06:09:59.042Z,93.76
2022-10-17T06:12:25.526Z,94.17
2022-10-17T06:14:51.949Z,94.58
2022-10-17T06:17:18.412Z,95.76
2022-10-17T06:19:45.233Z,98.10
2022-10-17T06:22:11.952Z,97.13
2022-10-17T06:24:38.402Z,97.23
2022-10-17T06:27:09.347Z,98.96
2022-10-17T06:29:38.598Z,98.19
2022-10-17T06:32:05.428Z,97.29
2022-10-17T06:34:31.940Z,97.31
2022-10-17T06:36:58.432Z,96.54
2022-10-17T06:39:26.914Z,96.08
2022-10-17T06:41:53.357Z,95.51
2022-10-17T06:44:19.791Z,94.68
2022-10-17T06:46:46.268Z,94.36
2022-10-17T06:49:12.729Z,93.80
2022-10-17T06:51:39.184Z,93.90
2022-10-17T06:54:05.767Z,93.31
2022-10-17T06:56:32.247Z,91.66
2022-10-17T06:58:58.737Z,90.74
2022-10-17T07:01:25.450Z,89.35
2022-10-17T07:03:52.303Z,87.89
2022-10-17T07:06:19.164Z,88.23
2022-10-17T07:08:46.001Z,87.83
2022-10-17T07:11:14.738Z,88.44
2022-10-17T07:13:41.333Z,87.68
2022-10-17T07:16:08.660Z,87.61
2022-10-17T07:18:35.096Z,87.35
2022-10-17T07:21:01.684Z,88.34
2022-10-17T07:23:28.124Z,87.96
2022-10-17T07:26:06.773Z,87.70
2022-10-17T07:28:37.733Z,87.17
2022-10-17T07:31:16.171Z,87.69
2022-10-17T07:33:43.805Z,87.30
2022-10-17T07:36:10.478Z,88.16
2022-10-17T07:38:36.949Z,86.31
2022-10-17T07:41:06.770Z,85.26
2022-10-17T07:43:33.829Z,84.65
2022-10-17T07:46:01.965Z,84.13
2022-10-17T07:48:28.636Z,82.12
2022-10-17T07:50:55.069Z,81.41
2022-10-17T07:53:21.563Z,81.92
2022-10-17T07:55:49.576Z,81.11
2022-10-17T07:58:16.485Z,81.28
2022-10-17T08:00:43.382Z,80.52
2022-10-17T08:03:10.896Z,78.61
2022-10-17T08:05:37.321Z,79.28
2022-10-17T08:08:03.877Z,78.29
2022-10-17T08:10:30.342Z,76.20
2022-10-17T08:12:58.347Z,76.78
2022-10-17T08:15:29.379Z,76.11
2022-10-17T08:17:59.085Z,77.20
2022-10-17T08:20:25.587Z,74.99
2022-10-17T08:22:55.494Z,75.15
2022-10-17T08:25:22.970Z,74.46
2022-10-17T08:27:49.865Z,73.80
2022-10-17T08:30:16.888Z,74.19
2022-10-17T08:32:43.961Z,73.09
2022-10-17T08:35:11.055Z,74.13
2022-10-17T08:37:37.499Z,74.60
2022-10-17T08:40:04.882Z,72.87
2022-10-17T08:43:04.201Z,72.37
2022-10-17T08:45:36.721Z,73.33
2022-10-17T08:48:09.782Z,76.08
2022-10-17T08:50:45.360Z,75.01
2022-10-17T08:53:33.196Z,73.97
2022-10-17T08:56:09.341Z,75.86
2022-10-17T08:58:38.509Z,75.62
2022-10-17T09:01:13.661Z,74.58
2022-10-17T09:03:58.319Z,73.48
2022-10-17T09:06:33.103Z,71.69
2022-10-17T09:09:14.598Z,73.02
2022-10-17T09:12:10.062Z,72.60
2022-10-17T09:15:11.538Z,72.71
2022-10-17T09:18:02.278Z,72.35
2022-10-17T09:20:42.654Z,71.30
2022-10-17T09:23:17.368Z,70.90
2022-10-17T09:25:54.142Z,71.11
2022-10-17T09:28:28.088Z,71.37
2022-10-17T09:30:54.472Z,72.87
2022-10-17T09:33:35.045Z,72.44
2022-10-17T09:36:11.648Z,72.77
2022-10-17T09:38:41.724Z,72.97
2022-10-17T09:41:32.379Z,71.77
2022-10-17T09:44:18.554Z,73.40
2022-10-17T09:46:56.290Z,73.23
2022-10-17T09:49:44.238Z,73.29
2022-10-17T09:52:35.154Z,72.19
2022-10-17T09:55:32.282Z,73.27
2022-10-17T09:58:01.320Z,74.19
2022-10-17T10:00:38.003Z,73.26
2022-10-17T10:03:10.380Z,73.98
2022-10-17T10:05:36.944Z,74.00
2022-10-17T10:08:12.613Z,74.08
2022-10-17T10:10:43.078Z,74.83
2022-10-17T10:13:20.310Z,73.71
2022-10-17T10:15:49.431Z,75.05
2022-10-17T10:18:24.767Z,73.75
2022-10-17T10:21:19.978Z,73.85
2022-10-17T10:24:04.712Z,74.19
2022-10-17T10:26:35.365Z,74.38
2022-10-17T10:29:06.690Z,74.38
2022-10-17T10:31:40.022Z,73.94
2022-10-17T10:34:19.310Z,74.03
2022-10-17T10:36:50.961Z,74.73
2022-10-17T10:39:57.854Z,74.65
2022-10-17T10:42:40.752Z,74.70
2022-10-17T10:45:42.896Z,75.10
2022-10-17T10:48:25.376Z,75.25
2022-10-17T10:51:04.419Z,74.95
2022-10-17T10:53:55.419Z,74.75
2022-10-17T10:56:48.708Z,74.42
2022-10-17T10:59:29.279Z,75.94
2022-10-17T11:02:11.668Z,75.33
2022-10-17T11:05:03.922Z,75.58
2022-10-17T11:07:39.345Z,75.25
2022-10-17T11:10:22.054Z,76.21
2022-10-17T11:12:55.160Z,76.32
2022-10-17T11:15:30.366Z,76.65
2022-10-17T11:18:07.221Z,77.17
2022-10-17T11:20:57.690Z,75.71
2022-10-17T11:23:48.728Z,77.03
2022-10-17T11:26:38.375Z,77.17
2022-10-17T11:29:09.087Z,77.40
2022-10-17T11:31:40.354Z,77.32
2022-10-17T11:34:21.400Z,77.69
2022-10-17T11:36:57.040Z,78.90
2022-10-17T11:39:35.187Z,76.92
2022-10-17T11:42:10.739Z,75.09
2022-10-17T11:44:42.478Z,74.90
2022-10-17T11:47:29.949Z,73.77
2022-10-17T11:53:34.579Z,73.77
2022-10-17T11:56:02.028Z,73.71
2022-10-17T11:58:57.553Z,73.50
2022-10-17T12:01:33.061Z,74.45
2022-10-17T12:04:21.287Z,72.83
2022-10-17T12:07:25.562Z,73.75
2022-10-17T12:10:16.917Z,73.20
2022-10-17T12:12:43.549Z,73.54
2022-10-17T12:15:12.685Z,74.44
2022-10-17T12:17:46.902Z,73.09
2022-10-17T12:20:25.982Z,73.03
2022-10-17T12:23:00.936Z,73.01
2022-10-17T12:25:32.007Z,73.03
2022-10-17T12:28:10.853Z,73.30
2022-10-17T12:30:49.074Z,73.26
2022-10-17T12:33:26.861Z,73.38
2022-10-17T12:36:21.255Z,73.62
2022-10-17T12:38:50.309Z,73.90
2022-10-17T12:41:17.468Z,73.96
2022-10-17T12:46:40.973Z,74.30
2022-10-17T12:49:23.942Z,74.60
2022-10-17T12:52:31.971Z,74.74
2022-10-17T12:55:18.071Z,74.44
2022-10-17T12:58:03.894Z,74.68
2022-10-17T13:01:05.424Z,74.69
2022-10-17T13:03:41.799Z,74.84
2022-10-17T13:06:21.029Z,74.73
2022-10-17T13:08:54.509Z,75.11
2022-10-17T13:11:26.238Z,75.17
2022-10-17T13:13:54.757Z,75.08
2022-10-17T13:16:34.575Z,75.14
2022-10-17T13:19:03.398Z,75.29
2022-10-17T13:21:30.178Z,75.17
2022-10-17T13:23:56.676Z,74.91
2022-10-17T13:26:28.439Z,75.05
2022-10-17T13:29:04.147Z,74.90
2022-10-17T13:31:32.625Z,74.49
2022-10-17T13:34:01.725Z,74.05
2022-10-17T13:36:30.327Z,74.42
2022-10-17T13:39:00.361Z,74.54
2022-10-17T13:41:35.907Z,74.25
2022-10-17T13:44:04.234Z,74.54
2022-10-17T13:46:38.462Z,74.32
2022-10-17T13:49:25.803Z,74.59
2022-10-17T13:51:56.715Z,74.62
2022-10-17T13:54:34.052Z,74.51
2022-10-17T13:57:02.115Z,74.94
2022-10-17T13:59:36.966Z,74.70
2022-10-17T14:02:03.722Z,74.49
2022-10-17T14:04:39.971Z,74.58
2022-10-17T14:08:10.087Z,74.59
2022-10-17T14:10:36.910Z,75.12
2022-10-17T14:13:08.088Z,74.86
2022-10-17T14:15:36.655Z,74.76
2022-10-17T14:18:08.042Z,75.17
2022-10-17T14:23:34.144Z,74.79
2022-10-17T14:26:15.384Z,74.99
2022-10-17T14:28:45.215Z,74.68
2022-10-17T14:31:25.570Z,74.80
2022-10-17T14:33:54.143Z,75.34
2022-10-17T14:36:30.929Z,75.24
2022-10-17T14:38:57.849Z,75.06
2022-10-17T14:41:44.373Z,75.16
2022-10-17T14:44:31.994Z,75.43
2022-10-17T14:47:18.240Z,75.39
2022-10-17T14:50:11.968Z,75.75
2022-10-17T14:52:39.809Z,75.67
2022-10-17T14:55:24.837Z,76.46
2022-10-17T14:57:51.819Z,76.17
2022-10-17T15:00:20.403Z,76.58
2022-10-17T15:02:48.111Z,76.77
2022-10-17T15:05:15.915Z,76.52
2022-10-17T15:07:43.576Z,76.97
2022-10-17T15:10:27.714Z,77.48
2022-10-17T15:12:59.138Z,77.22
2022-10-17T15:15:28.048Z,78.14
2022-10-17T15:17:54.852Z,78.97
2022-10-17T15:20:25.975Z,78.26
2022-10-17T15:22:53.651Z,78.69
2022-10-17T15:25:20.282Z,79.59
2022-10-17T15:27:46.821Z,80.29
2022-10-17T15:30:23.677Z,81.59
2022-10-17T15:32:51.191Z,81.05
2022-10-17T15:35:18.451Z,82.19
2022-10-17T15:37:46.803Z,81.67
2022-10-17T15:40:28.817Z,82.75
2022-10-17T15:42:59.125Z,81.58
2022-10-17T15:45:25.528Z,83.81
2022-10-17T15:48:05.864Z,83.67
2022-10-17T15:50:32.518Z,84.48
2022-10-17T15:52:59.531Z,86.22
2022-10-17T15:55:26.186Z,85.55
2022-10-17T15:57:52.733Z,88.27
2022-10-17T16:00:22.493Z,88.94
2022-10-17T16:02:49.856Z,88.06
2022-10-17T16:05:19.708Z,86.91
2022-10-17T16:07:46.759Z,88.13
2022-10-17T16:10:14.392Z,89.08
2022-10-17T16:12:43.902Z,91.10
2022-10-17T16:15:22.932Z,93.04
2022-10-17T16:17:52.820Z,94.28
2022-10-17T16:20:19.795Z,91.54
2022-10-17T16:22:46.917Z,94.32
2022-10-17T16:25:28.178Z,95.34
2022-10-17T16:27:56.908Z,94.17
2022-10-17T16:30:25.978Z,93.33
2022-10-17T16:32:53.617Z,94.21
2022-10-17T16:35:25.830Z,94.42
2022-10-17T16:37:52.715Z,92.48
2022-10-17T16:40:19.687Z,92.53
2022-10-17T16:42:46.462Z,93.74
2022-10-17T16:45:21.683Z,95.82
2022-10-17T16:47:48.669Z,97.04
2022-10-17T16:50:15.823Z,95.72
2022-10-17T16:52:42.587Z,97.74
2022-10-17T16:55:10.051Z,98.25
2022-10-17T16:57:36.687Z,97.80
2022-10-17T17:00:04.893Z,95.29
2022-10-17T17:02:31.681Z,94.54
2022-10-17T17:04:58.393Z,93.88
2022-10-17T17:07:24.908Z,93.17
2022-10-17T17:09:51.549Z,93.06
2022-10-17T17:12:18.007Z,94.88
2022-10-17T17:14:44.546Z,95.70
2022-10-17T17:17:19.456Z,94.38
2022-10-17T17:19:57.095Z,93.87
2022-10-17T17:22:23.639Z,93.46
2022-10-17T17:27:21.575Z,91.82
2022-10-17T17:29:48.025Z,91.17
2022-10-17T17:32:14.725Z,91.78
2022-10-17T17:34:41.129Z,91.21
2022-10-17T17:37:07.594Z,90.80
2022-10-17T17:39:34.098Z,91.01
2022-10-17T17:42:00.574Z,91.34
2022-10-17T17:44:27.080Z,91.11
2022-10-17T17:46:53.647Z,90.97
2022-10-17T17:49:21.580Z,91.28
2022-10-17T17:51:48.107Z,92.18
2022-10-17T17:54:15.214Z,92.86
2022-10-17T17:56:41.955Z,94.66
2022-10-17T17:59:11.604Z,95.74
2022-10-17T18:01:38.996Z,96.46
2022-10-17T18:04:08.614Z,96.48
2022-10-17T18:06:36.697Z,95.74
2022-10-17T18:09:03.529Z,96.63
2022-10-17T18:11:30.260Z,96.39
2022-10-17T18:13:59.427Z,96.21
2022-10-17T18:16:27.207Z,94.96
2022-10-17T18:18:54.132Z,94.64
2022-10-17T18:21:20.634Z,94.21
2022-10-17T18:23:48.612Z,94.32
2022-10-17T18:26:15.502Z,94.73
2022-10-17T18:28:43.270Z,95.16
2022-10-17T18:31:15.497Z,95.54
2022-10-17T18:33:44.524Z,95.73
2022-10-17T18:36:13.839Z,94.77
2022-10-17T18:38:40.731Z,96.08
2022-10-17T18:41:10.173Z,96.26
2022-10-17T18:43:38.083Z,96.46
2022-10-17T18:46:16.615Z,96.92
2022-10-17T18:48:44.707Z,97.04
2022-10-17T18:51:12.629Z,97.35
2022-10-17T18:53:43.507Z,96.63
2022-10-17T18:56:11.065Z,96.80
2022-10-17T18:58:38.535Z,96.50
2022-10-17T19:01:08.073Z,96.59
2022-10-17T19:03:34.936Z,96.18
2022-10-17T19:06:09.534Z,96.52
2022-10-17T19:08:37.252Z,96.29
2022-10-17T19:11:08.515Z,96.22
2022-10-17T19:13:35.933Z,96.77
2022-10-17T19:16:07.744Z,97.05
2022-10-17T19:18:35.134Z,95.82
2022-10-17T19:21:06.278Z,95.98
2022-10-17T19:23:35.782Z,96.42
2022-10-17T19:26:05.532Z,95.96
2022-10-17T19:28:32.816Z,95.86
2022-10-17T19:30:59.602Z,95.26
2022-10-17T19:33:26.090Z,95.39
2022-10-17T19:36:04.834Z,96.27
2022-10-17T19:38:31.794Z,96.27
2022-10-17T19:41:01.210Z,97.50
2022-10-17T19:43:28.310Z,98.02
2022-10-17T19:46:03.175Z,97.35
2022-10-17T19:48:32.679Z,98.22
2022-10-17T19:50:59.351Z,97.89
2022-10-17T19:53:29.616Z,98.14
2022-10-17T19:55:57.512Z,97.51
2022-10-17T19:58:25.017Z,98.00
2022-10-17T20:00:56.612Z,97.85
2022-10-17T20:03:24.790Z,98.42
2022-10-17T20:05:52.242Z,98.07
2022-10-17T20:08:19.399Z,98.01
2022-10-17T20:10:46.320Z,98.21
2022-10-17T20:13:13.815Z,98.43
2022-10-17T20:15:40.277Z,98.11
2022-10-17T20:18:07.697Z,98.67
2022-10-17T20:20:35.529Z,98.90
2022-10-17T20:23:02.360Z,99.11
2022-10-17T20:25:28.863Z,99.70
2022-10-17T20:27:55.372Z,99.44
2022-10-17T20:30:21.846Z,99.33
2022-10-17T20:32:48.290Z,99.00
2022-10-17T20:35:14.773Z,97.80
2022-10-17T20:37:42.690Z,97.88
2022-10-17T20:40:33.744Z,97.35
2022-10-17T20:42:56.452Z,97.44
2022-10-17T20:45:37.361Z,97.61
2022-10-17T20:48:14.065Z,98.27
2022-10-17T20:50:41.398Z,99.29
2022-10-17T20:53:34.927Z,99.42
2022-10-17T20:56:04.425Z,99.55
2022-10-17T20:58:30.935Z,99.26
2022-10-17T21:00:57.362Z,98.79
2022-10-17T21:03:24.331Z,98.41
2022-10-17T21:05:50.756Z,97.82
2022-10-17T21:08:17.203Z,98.41
2022-10-17T21:10:43.650Z,97.99
2022-10-17T21:13:10.051Z,99.68
2022-10-17T21:15:36.439Z,100.00
2022-10-17T21:18:02.950Z,100.00
2022-10-17T21:20:29.376Z,100.00
2022-10-17T21:22:57.276Z,100.00
2022-10-17T21:25:23.830Z,100.00
2022-10-17T21:27:52.630Z,100.00
2022-10-17T21:30:20.906Z,100.00
2022-10-17T21:32:51.526Z,100.00
2022-10-17T21:35:18.532Z,100.00
2022-10-17T21:37:44.948Z,100.00
2022-10-17T21:40:12.150Z,100.00
2022-10-17T21:42:38.623Z,100.00
2022-10-17T21:45:10.768Z,100.00
2022-10-17T21:47:45.611Z,100.00
2022-10-17T21:50:21.586Z,100.00
2022-10-17T21:52:47.989Z,100.00
2022-10-17T21:55:14.581Z,100.00
2022-10-17T21:57:41.010Z,100.00
2022-10-17T22:00:08.222Z,100.00
2022-10-17T22:02:34.634Z,100.00
2022-10-17T22:05:01.087Z,100.00
2022-10-17T22:07:27.522Z,100.00
2022-10-17T22:09:53.938Z,100.00
2022-10-17T22:12:20.360Z,100.00
2022-10-17T22:14:46.787Z,100.00
2022-10-17T22:17:13.273Z,100.00
2022-10-17T22:19:39.749Z,100.00
2022-10-17T22:22:06.178Z,100.00
2022-10-17T22:24:32.787Z,100.00
2022-10-17T22:26:59.273Z,100.00
2022-10-17T22:29:25.752Z,100.00
2022-10-17T22:31:52.161Z,100.00
2022-10-17T22:34:18.956Z,100.00
2022-10-17T22:36:47.608Z,100.00
2022-10-17T22:39:14.459Z,100.00
2022-10-17T22:41:40.897Z,100.00
2022-10-17T22:44:07.482Z,100.00
2022-10-17T22:46:33.929Z,100.00
2022-10-17T22:49:00.539Z,100.00
2022-10-17T22:51:27.023Z,100.00
2022-10-17T22:53:53.470Z,100.00
2022-10-17T22:56:21.501Z,100.00
2022-10-17T22:58:48.286Z,100.00
2022-10-17T23:01:18.247Z,100.00
2022-10-17T23:03:46.121Z,100.00
2022-10-17T23:06:13.128Z,100.00
2022-10-17T23:08:40.693Z,100.00
2022-10-17T23:11:08.088Z,100.00
2022-10-17T23:13:35.530Z,100.00
2022-10-17T23:16:02.066Z,100.00
2022-10-17T23:18:28.513Z,100.00
2022-10-17T23:20:55.534Z,100.00
2022-10-17T23:23:22.702Z,100.00
2022-10-17T23:25:49.761Z,100.00
2022-10-17T23:28:16.749Z,100.00
2022-10-17T23:30:43.687Z,100.00
2022-10-17T23:33:11.968Z,100.00
2022-10-17T23:35:38.877Z,100.00
2022-10-17T23:38:05.317Z,100.00
2022-10-17T23:40:31.797Z,100.00
2022-10-17T23:42:58.302Z,100.00
2022-10-17T23:45:24.767Z,100.00
2022-10-17T23:47:51.214Z,100.00
2022-10-17T23:50:18.094Z,100.00
2022-10-17T23:52:44.632Z,100.00
2022-10-17T23:55:11.267Z,100.00
2022-10-17T23:57:37.773Z,100.00
